createdAt,value
2016-08-23T00:00:20.212Z,0
2016-08-23T00:00:44.311Z,0
2016-08-23T00:01:08.435Z,0
2016-08-23T00:01:32.584Z,0
2016-08-23T00:01:56.721Z,0
2016-08-23T00:02:20.830Z,0
2016-08-23T00:02:45.014Z,0
2016-08-23T00:03:09.170Z,0
2016-08-23T00:03:33.294Z,0
2016-08-23T00:03:57.424Z,0
2016-08-23T00:04:21.565Z,0
2016-08-23T00:04:45.674Z,0
2016-08-23T00:05:09.819Z,0
2016-08-23T00:05:34.000Z,0
2016-08-23T00:05:58.133Z,0
2016-08-23T00:06:22.232Z,0
2016-08-23T00:06:46.391Z,0
2016-08-23T00:07:10.537Z,0
2016-08-23T00:07:34.651Z,0
2016-08-23T00:07:58.784Z,0
2016-08-23T00:08:22.926Z,0
2016-08-23T00:08:47.069Z,0
2016-08-23T00:09:11.177Z,0
2016-08-23T00:09:35.300Z,0
2016-08-23T00:09:59.462Z,0
2016-08-23T00:10:23.600Z,0
2016-08-23T00:10:47.704Z,0
2016-08-23T00:11:11.817Z,0
2016-08-23T00:11:35.933Z,0
2016-08-23T00:12:00.065Z,0
2016-08-23T00:12:24.160Z,0
2016-08-23T00:12:48.278Z,0
2016-08-23T00:13:12.399Z,0
2016-08-23T00:13:36.528Z,0
2016-08-23T00:14:00.648Z,0
2016-08-23T00:14:24.803Z,0
2016-08-23T00:14:48.920Z,0
2016-08-23T00:15:13.073Z,0
2016-08-23T00:15:37.164Z,0
2016-08-23T00:16:01.295Z,0
2016-08-23T00:16:25.441Z,0
2016-08-23T00:16:49.598Z,0
2016-08-23T00:17:13.719Z,0
2016-08-23T00:17:37.860Z,0
2016-08-23T00:18:01.987Z,0
2016-08-23T00:18:26.102Z,0
2016-08-23T00:18:50.224Z,0
2016-08-23T00:19:14.340Z,0
2016-08-23T00:19:38.465Z,0
2016-08-23T00:20:02.576Z,0
2016-08-23T00:20:26.688Z,0
2016-08-23T00:20:50.815Z,0
2016-08-23T00:21:14.935Z,0
2016-08-23T00:21:39.033Z,0
2016-08-23T00:22:03.163Z,0
2016-08-23T00:22:27.305Z,0
2016-08-23T00:22:51.452Z,0
2016-08-23T00:23:15.559Z,0
2016-08-23T00:23:39.676Z,0
2016-08-23T00:24:03.835Z,0
2016-08-23T00:24:27.962Z,0
2016-08-23T00:24:52.082Z,0
2016-08-23T00:25:16.240Z,0
2016-08-23T00:25:40.371Z,0
2016-08-23T00:26:04.498Z,0
2016-08-23T00:26:28.603Z,0
2016-08-23T00:26:52.740Z,0
2016-08-23T00:27:16.904Z,0
2016-08-23T00:27:41.028Z,0
2016-08-23T00:28:05.182Z,0
2016-08-23T00:28:29.318Z,0
2016-08-23T00:28:53.464Z,0
2016-08-23T00:29:17.597Z,0
2016-08-23T00:29:41.733Z,0
2016-08-23T00:30:05.861Z,0
2016-08-23T00:30:29.998Z,0
2016-08-23T00:30:54.116Z,0
2016-08-23T00:31:18.242Z,0
2016-08-23T00:31:42.371Z,0
2016-08-23T00:32:06.507Z,0
2016-08-23T00:32:30.624Z,0
2016-08-23T00:32:54.753Z,0
2016-08-23T00:33:18.921Z,0
2016-08-23T00:33:43.046Z,0
2016-08-23T00:34:07.165Z,0
2016-08-23T00:34:31.305Z,0
2016-08-23T00:34:55.441Z,0
2016-08-23T00:35:19.549Z,0
2016-08-23T00:35:43.674Z,0
2016-08-23T00:36:07.802Z,0
2016-08-23T00:36:31.913Z,0
2016-08-23T00:36:56.101Z,0
2016-08-23T00:37:20.218Z,0
2016-08-23T00:37:44.401Z,0
2016-08-23T00:38:08.538Z,0
2016-08-23T00:38:32.654Z,0
2016-08-23T00:38:56.760Z,0
2016-08-23T00:39:20.872Z,0
2016-08-23T00:39:44.996Z,0
2016-08-23T00:40:09.123Z,0
2016-08-23T00:40:33.223Z,0
2016-08-23T00:40:57.348Z,0
2016-08-23T00:41:21.494Z,0
2016-08-23T00:41:45.591Z,0
2016-08-23T00:42:09.730Z,0
2016-08-23T00:42:33.862Z,0
2016-08-23T00:42:57.986Z,0
2016-08-23T00:43:22.097Z,0
2016-08-23T00:43:46.208Z,0
2016-08-23T00:44:10.337Z,0
2016-08-23T00:44:34.458Z,0
2016-08-23T00:44:58.565Z,0
2016-08-23T00:45:22.685Z,0
2016-08-23T00:45:46.804Z,0
2016-08-23T00:46:10.920Z,0
2016-08-23T00:46:35.068Z,0
2016-08-23T00:46:59.210Z,0
2016-08-23T00:47:23.351Z,0
2016-08-23T00:47:47.507Z,0
2016-08-23T00:48:11.642Z,0
2016-08-23T00:48:35.780Z,0
2016-08-23T00:48:59.898Z,0
2016-08-23T00:49:23.999Z,0
2016-08-23T00:49:48.139Z,0
2016-08-23T00:50:12.248Z,0
2016-08-23T00:50:36.402Z,0
2016-08-23T00:51:00.490Z,0
2016-08-23T00:51:24.612Z,0
2016-08-23T00:51:48.755Z,0
2016-08-23T00:52:12.886Z,0
2016-08-23T00:52:37.058Z,0
2016-08-23T00:53:01.193Z,0
2016-08-23T00:53:25.310Z,0
2016-08-23T00:53:49.436Z,0
2016-08-23T00:54:13.550Z,0
2016-08-23T00:54:37.670Z,0
2016-08-23T00:55:01.807Z,0
2016-08-23T00:55:25.912Z,0
2016-08-23T00:55:50.017Z,0
2016-08-23T00:56:14.148Z,0
2016-08-23T00:56:38.268Z,0
2016-08-23T00:57:02.418Z,0
2016-08-23T00:57:26.580Z,0
2016-08-23T00:57:50.714Z,0
2016-08-23T00:58:14.896Z,0
2016-08-23T00:58:38.998Z,0
2016-08-23T00:59:03.110Z,0
2016-08-23T00:59:27.248Z,0
2016-08-23T00:59:51.377Z,0
2016-08-23T01:00:15.500Z,0
2016-08-23T01:00:39.642Z,0
2016-08-23T01:01:03.760Z,0
2016-08-23T01:01:27.888Z,0
2016-08-23T01:01:51.986Z,0
2016-08-23T01:02:16.137Z,0
2016-08-23T01:02:40.274Z,0
2016-08-23T01:03:04.397Z,0
2016-08-23T01:03:28.532Z,0
2016-08-23T01:03:52.652Z,0
2016-08-23T01:04:16.799Z,0
2016-08-23T01:04:40.914Z,0
2016-08-23T01:05:05.049Z,0
2016-08-23T01:05:29.173Z,0
2016-08-23T01:05:53.323Z,0
2016-08-23T01:06:17.442Z,0
2016-08-23T01:06:41.612Z,0
2016-08-23T01:07:05.728Z,0
2016-08-23T01:07:29.890Z,0
2016-08-23T01:07:53.991Z,0
2016-08-23T01:08:18.108Z,0
2016-08-23T01:08:42.254Z,0
2016-08-23T01:09:06.380Z,0
2016-08-23T01:09:30.493Z,0
2016-08-23T01:09:54.619Z,0
2016-08-23T01:10:18.759Z,0
2016-08-23T01:10:42.922Z,0
2016-08-23T01:11:07.039Z,0
2016-08-23T01:11:31.163Z,0
2016-08-23T01:11:55.306Z,0
2016-08-23T01:12:19.414Z,0
2016-08-23T01:12:43.542Z,0
2016-08-23T01:13:07.642Z,0
2016-08-23T01:13:31.785Z,0
2016-08-23T01:13:55.921Z,0
2016-08-23T01:14:20.034Z,0
2016-08-23T01:14:44.167Z,0
2016-08-23T01:15:08.289Z,0
2016-08-23T01:15:32.421Z,0
2016-08-23T01:15:56.542Z,0
2016-08-23T01:16:20.690Z,0
2016-08-23T01:16:44.826Z,0
2016-08-23T01:17:08.959Z,0
2016-08-23T01:17:33.083Z,0
2016-08-23T01:17:57.203Z,0
2016-08-23T01:18:21.326Z,0
2016-08-23T01:18:45.473Z,0
2016-08-23T01:19:20.249Z,0
2016-08-23T01:19:44.378Z,0
2016-08-23T01:20:08.503Z,0
2016-08-23T01:20:32.620Z,0
2016-08-23T01:20:56.814Z,0
2016-08-23T01:21:20.950Z,0
2016-08-23T01:21:45.082Z,0
2016-08-23T01:22:09.216Z,0
2016-08-23T01:22:33.334Z,0
2016-08-23T01:22:57.459Z,0
2016-08-23T01:23:21.569Z,0
2016-08-23T01:23:46.479Z,0
2016-08-23T01:24:10.619Z,0
2016-08-23T01:24:34.738Z,0
2016-08-23T01:24:58.870Z,0
2016-08-23T01:25:22.989Z,0
2016-08-23T01:25:47.110Z,0
2016-08-23T01:26:11.221Z,0
2016-08-23T01:26:35.351Z,0
2016-08-23T01:26:59.492Z,0
2016-08-23T01:27:23.621Z,0
2016-08-23T01:27:47.734Z,0
2016-08-23T01:28:11.871Z,0
2016-08-23T01:28:36.013Z,0
2016-08-23T01:29:00.127Z,0
2016-08-23T01:29:24.257Z,0
2016-08-23T01:29:48.388Z,0
2016-08-23T01:30:12.530Z,0
2016-08-23T01:30:36.654Z,0
2016-08-23T01:31:00.760Z,0
2016-08-23T01:31:24.889Z,0
2016-08-23T01:31:49.016Z,0
2016-08-23T01:32:13.131Z,0
2016-08-23T01:32:37.255Z,0
2016-08-23T01:33:01.421Z,0
2016-08-23T01:33:25.575Z,0
2016-08-23T01:33:49.676Z,0
2016-08-23T01:34:13.813Z,0
2016-08-23T01:34:37.946Z,0
2016-08-23T01:35:02.100Z,0
2016-08-23T01:35:26.207Z,0
2016-08-23T01:35:50.341Z,0
2016-08-23T01:36:14.483Z,0
2016-08-23T01:36:38.640Z,0
2016-08-23T01:37:02.749Z,0
2016-08-23T01:37:26.863Z,0
2016-08-23T01:37:50.983Z,0
2016-08-23T01:38:15.092Z,0
2016-08-23T01:38:39.213Z,0
2016-08-23T01:39:03.319Z,0
2016-08-23T01:39:27.453Z,0
2016-08-23T01:39:51.601Z,0
2016-08-23T01:40:15.744Z,0
2016-08-23T01:40:39.879Z,0
2016-08-23T01:41:04.008Z,0
2016-08-23T01:41:28.138Z,0
2016-08-23T01:41:52.263Z,0
2016-08-23T01:42:16.406Z,0
2016-08-23T01:42:40.559Z,0
2016-08-23T01:43:04.695Z,0
2016-08-23T01:43:28.847Z,0
2016-08-23T01:43:52.978Z,0
2016-08-23T01:44:17.123Z,0
2016-08-23T01:44:41.261Z,0
2016-08-23T01:45:05.388Z,0
2016-08-23T01:45:29.545Z,0
2016-08-23T01:45:53.653Z,0
2016-08-23T01:46:17.784Z,0
2016-08-23T01:46:41.949Z,0
2016-08-23T01:47:06.106Z,0
2016-08-23T01:47:30.246Z,0
2016-08-23T01:47:54.387Z,0
2016-08-23T01:48:18.507Z,0
2016-08-23T01:48:42.643Z,0
2016-08-23T01:49:06.743Z,0
2016-08-23T01:49:30.883Z,0
2016-08-23T01:49:55.001Z,0
2016-08-23T01:50:19.156Z,0
2016-08-23T01:50:43.284Z,0
2016-08-23T01:51:07.392Z,0
2016-08-23T01:51:31.532Z,0
2016-08-23T01:51:55.697Z,0
2016-08-23T01:52:19.836Z,0
2016-08-23T01:52:43.965Z,0
2016-08-23T01:53:08.101Z,0
2016-08-23T01:53:32.218Z,0
2016-08-23T01:53:56.349Z,0
2016-08-23T01:54:20.497Z,0
2016-08-23T01:54:44.625Z,0
2016-08-23T01:55:08.736Z,0
2016-08-23T01:55:32.885Z,0
2016-08-23T01:55:57.028Z,0
2016-08-23T01:56:21.124Z,0
2016-08-23T01:56:45.277Z,0
2016-08-23T01:57:09.377Z,0
2016-08-23T01:57:33.530Z,0
2016-08-23T01:57:57.668Z,0
2016-08-23T01:58:21.784Z,0
2016-08-23T01:58:45.908Z,0
2016-08-23T01:59:10.041Z,0
2016-08-23T01:59:34.176Z,0
2016-08-23T01:59:58.291Z,0
2016-08-23T02:00:22.425Z,0
2016-08-23T02:00:46.544Z,0
2016-08-23T02:01:10.695Z,0
2016-08-23T02:01:34.807Z,0
2016-08-23T02:01:58.932Z,0
2016-08-23T02:02:23.078Z,0
2016-08-23T02:02:47.234Z,0
2016-08-23T02:03:11.359Z,0
2016-08-23T02:03:35.477Z,0
2016-08-23T02:03:59.609Z,0
2016-08-23T02:04:23.755Z,0
2016-08-23T02:04:47.910Z,0
2016-08-23T02:05:12.046Z,0
2016-08-23T02:05:36.172Z,0
2016-08-23T02:06:00.323Z,0
2016-08-23T02:06:24.451Z,0
2016-08-23T02:06:48.585Z,0
2016-08-23T02:07:12.708Z,0
2016-08-23T02:07:36.818Z,0
2016-08-23T02:08:00.919Z,0
2016-08-23T02:08:25.044Z,0
2016-08-23T02:08:49.151Z,0
2016-08-23T02:09:13.286Z,0
2016-08-23T02:09:37.405Z,0
2016-08-23T02:10:01.542Z,0
2016-08-23T02:10:25.677Z,0
2016-08-23T02:10:49.783Z,0
2016-08-23T02:11:13.909Z,0
2016-08-23T02:11:38.041Z,0
2016-08-23T02:12:02.155Z,0
2016-08-23T02:12:26.275Z,0
2016-08-23T02:12:50.417Z,0
2016-08-23T02:13:14.565Z,0
2016-08-23T02:13:38.693Z,0
2016-08-23T02:14:02.787Z,0
2016-08-23T02:14:26.909Z,0
2016-08-23T02:14:51.057Z,0
2016-08-23T02:15:15.194Z,0
2016-08-23T02:15:39.322Z,0
2016-08-23T02:16:03.482Z,0
2016-08-23T02:16:27.621Z,0
2016-08-23T02:16:51.729Z,0
2016-08-23T02:17:15.847Z,0
2016-08-23T02:17:40.006Z,0
2016-08-23T02:18:04.144Z,0
2016-08-23T02:18:28.248Z,0
2016-08-23T02:18:52.384Z,0
2016-08-23T02:19:17.262Z,0
2016-08-23T02:19:41.388Z,0
2016-08-23T02:20:05.514Z,0
2016-08-23T02:20:29.631Z,0
2016-08-23T02:20:53.775Z,0
2016-08-23T02:21:17.890Z,0
2016-08-23T02:21:42.000Z,0
2016-08-23T02:22:06.132Z,0
2016-08-23T02:22:30.269Z,0
2016-08-23T02:22:54.390Z,0
2016-08-23T02:23:18.508Z,0
2016-08-23T02:23:42.624Z,0
2016-08-23T02:24:06.754Z,0
2016-08-23T02:24:30.861Z,0
2016-08-23T02:24:54.988Z,0
2016-08-23T02:25:19.099Z,0
2016-08-23T02:25:43.221Z,0
2016-08-23T02:26:07.352Z,0
2016-08-23T02:26:31.453Z,0
2016-08-23T02:26:55.573Z,0
2016-08-23T02:27:19.697Z,0
2016-08-23T02:27:43.837Z,0
2016-08-23T02:28:07.957Z,0
2016-08-23T02:28:32.078Z,0
2016-08-23T02:28:56.226Z,0
2016-08-23T02:29:20.346Z,0
2016-08-23T02:29:44.479Z,0
2016-08-23T02:30:08.610Z,0
2016-08-23T02:30:32.743Z,0
2016-08-23T02:30:56.847Z,0
2016-08-23T02:31:20.998Z,0
2016-08-23T02:31:45.132Z,0
2016-08-23T02:32:09.252Z,0
2016-08-23T02:32:33.363Z,0
2016-08-23T02:32:57.496Z,0
2016-08-23T02:33:21.650Z,0
2016-08-23T02:33:45.771Z,0
2016-08-23T02:34:09.888Z,0
2016-08-23T02:34:34.021Z,0
2016-08-23T02:34:58.153Z,0
2016-08-23T02:35:22.290Z,0
2016-08-23T02:35:46.421Z,0
2016-08-23T02:36:10.569Z,0
2016-08-23T02:36:34.686Z,0
2016-08-23T02:36:58.797Z,0
2016-08-23T02:37:22.926Z,0
2016-08-23T02:37:47.063Z,0
2016-08-23T02:38:11.204Z,0
2016-08-23T02:38:35.309Z,0
2016-08-23T02:38:59.437Z,0
2016-08-23T02:39:24.668Z,0
2016-08-23T02:39:48.777Z,0
2016-08-23T02:40:12.893Z,0
2016-08-23T02:40:37.003Z,0
2016-08-23T02:41:01.128Z,0
2016-08-23T02:41:25.249Z,0
2016-08-23T02:41:49.363Z,0
2016-08-23T02:42:13.522Z,0
2016-08-23T02:42:37.641Z,0
2016-08-23T02:43:01.766Z,0
2016-08-23T02:43:25.897Z,0
2016-08-23T02:43:50.049Z,0
2016-08-23T02:44:14.166Z,0
2016-08-23T02:44:38.270Z,0
2016-08-23T02:45:02.405Z,0
2016-08-23T02:45:26.552Z,0
2016-08-23T02:45:50.730Z,0
2016-08-23T02:46:14.845Z,0
2016-08-23T02:46:38.971Z,0
2016-08-23T02:47:03.102Z,0
2016-08-23T02:47:27.232Z,0
2016-08-23T02:47:51.354Z,0
2016-08-23T02:48:15.492Z,0
2016-08-23T02:48:39.628Z,0
2016-08-23T02:49:03.788Z,0
2016-08-23T02:49:27.907Z,0
2016-08-23T02:49:52.059Z,0
2016-08-23T02:50:16.179Z,0
2016-08-23T02:50:40.278Z,0
2016-08-23T02:51:04.394Z,0
2016-08-23T02:51:28.538Z,0
2016-08-23T02:51:52.659Z,0
2016-08-23T02:52:16.765Z,0
2016-08-23T02:52:40.894Z,0
2016-08-23T02:53:05.012Z,0
2016-08-23T02:53:29.481Z,0
2016-08-23T02:53:53.607Z,0
2016-08-23T02:54:17.760Z,0
2016-08-23T02:54:41.923Z,0
2016-08-23T02:55:06.037Z,0
2016-08-23T02:55:30.185Z,0
2016-08-23T02:55:54.335Z,0
2016-08-23T02:56:18.473Z,0
2016-08-23T02:56:42.624Z,0
2016-08-23T02:57:06.769Z,0
2016-08-23T02:57:30.910Z,0
2016-08-23T02:57:55.043Z,0
2016-08-23T02:58:19.158Z,0
2016-08-23T02:58:43.315Z,0
2016-08-23T02:59:07.436Z,0
2016-08-23T02:59:31.557Z,0
2016-08-23T02:59:55.674Z,0
2016-08-23T03:00:19.797Z,0
2016-08-23T03:00:43.927Z,0
2016-08-23T03:01:08.071Z,0
2016-08-23T03:01:32.201Z,0
2016-08-23T03:01:56.381Z,0
2016-08-23T03:02:20.522Z,0
2016-08-23T03:02:44.639Z,0
2016-08-23T03:03:08.808Z,0
2016-08-23T03:03:32.938Z,0
2016-08-23T03:03:57.070Z,0
2016-08-23T03:04:21.170Z,0
2016-08-23T03:04:45.300Z,0
2016-08-23T03:05:09.445Z,0
2016-08-23T03:05:33.613Z,0
2016-08-23T03:05:57.723Z,0
2016-08-23T03:06:21.864Z,0
2016-08-23T03:06:45.999Z,0
2016-08-23T03:07:10.106Z,0
2016-08-23T03:07:34.226Z,0
2016-08-23T03:07:58.353Z,0
2016-08-23T03:08:22.471Z,0
2016-08-23T03:08:46.605Z,0
2016-08-23T03:09:10.750Z,0
2016-08-23T03:09:34.871Z,0
2016-08-23T03:09:58.969Z,0
2016-08-23T03:10:23.097Z,0
2016-08-23T03:10:47.263Z,0
2016-08-23T03:11:11.398Z,0
2016-08-23T03:11:35.515Z,0
2016-08-23T03:11:59.667Z,0
2016-08-23T03:12:23.804Z,0
2016-08-23T03:12:47.956Z,0
2016-08-23T03:13:12.079Z,0
2016-08-23T03:13:36.201Z,0
2016-08-23T03:14:00.325Z,0
2016-08-23T03:14:24.436Z,0
2016-08-23T03:14:48.578Z,0
2016-08-23T03:15:12.700Z,0
2016-08-23T03:15:36.842Z,0
2016-08-23T03:16:00.969Z,0
2016-08-23T03:16:25.109Z,0
2016-08-23T03:16:49.252Z,0
2016-08-23T03:17:13.392Z,0
2016-08-23T03:17:37.514Z,0
2016-08-23T03:18:01.650Z,0
2016-08-23T03:18:25.767Z,0
2016-08-23T03:18:49.883Z,0
2016-08-23T03:19:13.984Z,0
2016-08-23T03:19:38.102Z,0
2016-08-23T03:20:02.239Z,0
2016-08-23T03:20:26.358Z,0
2016-08-23T03:20:50.494Z,0
2016-08-23T03:21:14.631Z,0
2016-08-23T03:21:38.742Z,0
2016-08-23T03:22:02.862Z,0
2016-08-23T03:22:26.991Z,0
2016-08-23T03:22:51.097Z,0
2016-08-23T03:23:15.259Z,0
2016-08-23T03:23:39.413Z,0
2016-08-23T03:24:03.529Z,0
2016-08-23T03:24:27.690Z,0
2016-08-23T03:24:51.793Z,0
2016-08-23T03:25:15.934Z,0
2016-08-23T03:25:40.062Z,0
2016-08-23T03:26:04.204Z,0
2016-08-23T03:26:28.332Z,0
2016-08-23T03:26:52.466Z,0
2016-08-23T03:27:16.628Z,0
2016-08-23T03:27:40.794Z,0
2016-08-23T03:28:04.937Z,0
2016-08-23T03:28:29.076Z,0
2016-08-23T03:28:53.206Z,0
2016-08-23T03:29:17.330Z,0
2016-08-23T03:29:41.464Z,0
2016-08-23T03:30:05.581Z,0
2016-08-23T03:30:29.722Z,0
2016-08-23T03:30:53.820Z,0
2016-08-23T03:31:17.963Z,0
2016-08-23T03:31:42.135Z,0
2016-08-23T03:32:06.248Z,0
2016-08-23T03:32:30.359Z,0
2016-08-23T03:32:54.490Z,0
2016-08-23T03:33:18.645Z,0
2016-08-23T03:33:42.746Z,0
2016-08-23T03:34:06.874Z,0
2016-08-23T03:34:31.035Z,0
2016-08-23T03:34:55.164Z,0
2016-08-23T03:35:19.274Z,0
2016-08-23T03:35:43.417Z,0
2016-08-23T03:36:07.557Z,4
2016-08-23T03:36:31.676Z,4
2016-08-23T03:36:55.798Z,4
2016-08-23T03:37:19.931Z,4
2016-08-23T03:37:44.049Z,4
2016-08-23T03:38:08.156Z,4
2016-08-23T03:38:32.294Z,0
2016-08-23T03:38:56.423Z,0
2016-08-23T03:39:20.594Z,4
2016-08-23T03:39:44.708Z,4
2016-08-23T03:40:08.843Z,4
2016-08-23T03:40:32.978Z,4
2016-08-23T03:40:57.090Z,4
2016-08-23T03:41:21.207Z,4
2016-08-23T03:41:45.331Z,8
2016-08-23T03:42:09.480Z,4
2016-08-23T03:42:33.608Z,8
2016-08-23T03:42:57.724Z,4
2016-08-23T03:43:21.862Z,8
2016-08-23T03:43:46.020Z,8
2016-08-23T03:44:10.125Z,8
2016-08-23T03:44:34.239Z,8
2016-08-23T03:44:58.387Z,8
2016-08-23T03:45:22.521Z,8
2016-08-23T03:45:46.635Z,12
2016-08-23T03:46:10.751Z,8
2016-08-23T03:46:34.886Z,16
2016-08-23T03:46:59.004Z,16
2016-08-23T03:47:23.141Z,16
2016-08-23T03:47:47.282Z,20
2016-08-23T03:48:11.424Z,20
2016-08-23T03:48:35.547Z,24
2016-08-23T03:48:59.667Z,24
2016-08-23T03:49:23.840Z,28
2016-08-23T03:49:47.966Z,24
2016-08-23T03:50:12.113Z,28
2016-08-23T03:50:36.240Z,28
2016-08-23T03:51:00.373Z,28
2016-08-23T03:51:24.487Z,32
2016-08-23T03:51:48.609Z,32
2016-08-23T03:52:12.737Z,32
2016-08-23T03:52:36.875Z,36
2016-08-23T03:53:00.997Z,36
2016-08-23T03:53:25.125Z,40
2016-08-23T03:53:49.299Z,44
2016-08-23T03:54:13.428Z,44
2016-08-23T03:54:37.543Z,44
2016-08-23T03:55:01.671Z,48
2016-08-23T03:55:25.816Z,48
2016-08-23T03:55:49.962Z,48
2016-08-23T03:56:14.101Z,44
2016-08-23T03:56:38.228Z,48
2016-08-23T03:57:02.368Z,52
2016-08-23T03:57:26.501Z,52
2016-08-23T03:57:50.628Z,56
2016-08-23T03:58:14.742Z,60
2016-08-23T03:58:38.867Z,64
2016-08-23T03:59:03.002Z,64
2016-08-23T03:59:27.128Z,68
2016-08-23T03:59:51.272Z,72
2016-08-23T04:00:15.389Z,76
2016-08-23T04:00:39.515Z,80
2016-08-23T04:01:03.628Z,88
2016-08-23T04:01:27.753Z,88
2016-08-23T04:01:51.864Z,96
2016-08-23T04:02:16.006Z,96
2016-08-23T04:02:40.128Z,100
2016-08-23T04:03:04.265Z,104
2016-08-23T04:03:28.417Z,116
2016-08-23T04:03:52.565Z,128
2016-08-23T04:04:16.695Z,144
2016-08-23T04:04:40.805Z,160
2016-08-23T04:05:04.928Z,180
2016-08-23T04:05:29.064Z,196
2016-08-23T04:05:53.179Z,212
2016-08-23T04:06:17.305Z,220
2016-08-23T04:06:41.440Z,228
2016-08-23T04:07:05.580Z,232
2016-08-23T04:07:29.720Z,236
2016-08-23T04:07:53.839Z,240
2016-08-23T04:08:17.961Z,240
2016-08-23T04:08:42.083Z,244
2016-08-23T04:09:06.211Z,244
2016-08-23T04:09:30.340Z,252
2016-08-23T04:09:54.479Z,256
2016-08-23T04:10:18.618Z,260
2016-08-23T04:10:42.754Z,260
2016-08-23T04:11:06.883Z,256
2016-08-23T04:11:31.021Z,260
2016-08-23T04:11:55.166Z,264
2016-08-23T04:12:19.303Z,272
2016-08-23T04:12:43.432Z,284
2016-08-23T04:13:07.558Z,300
2016-08-23T04:13:31.668Z,316
2016-08-23T04:13:55.790Z,332
2016-08-23T04:14:19.928Z,348
2016-08-23T04:14:44.116Z,356
2016-08-23T04:15:08.258Z,364
2016-08-23T04:15:32.416Z,372
2016-08-23T04:15:56.569Z,380
2016-08-23T04:16:20.671Z,392
2016-08-23T04:16:44.797Z,412
2016-08-23T04:17:08.951Z,432
2016-08-23T04:17:33.104Z,452
2016-08-23T04:17:57.216Z,472
2016-08-23T04:18:21.339Z,492
2016-08-23T04:18:45.490Z,508
2016-08-23T04:19:09.607Z,524
2016-08-23T04:19:33.760Z,536
2016-08-23T04:19:57.883Z,552
2016-08-23T04:20:22.013Z,568
2016-08-23T04:20:46.143Z,588
2016-08-23T04:21:10.251Z,612
2016-08-23T04:21:34.390Z,644
2016-08-23T04:21:58.544Z,684
2016-08-23T04:22:22.699Z,728
2016-08-23T04:22:46.819Z,760
2016-08-23T04:23:10.965Z,792
2016-08-23T04:23:35.081Z,812
2016-08-23T04:23:59.195Z,840
2016-08-23T04:24:23.330Z,864
2016-08-23T04:24:47.456Z,892
2016-08-23T04:25:11.568Z,924
2016-08-23T04:25:35.694Z,944
2016-08-23T04:25:59.853Z,956
2016-08-23T04:26:24.000Z,964
2016-08-23T04:26:48.124Z,972
2016-08-23T04:27:12.263Z,980
2016-08-23T04:27:36.369Z,988
2016-08-23T04:28:00.503Z,996
2016-08-23T04:28:24.617Z,1008
2016-08-23T04:28:48.763Z,1016
2016-08-23T04:29:12.894Z,1024
2016-08-23T04:29:37.036Z,1032
2016-08-23T04:30:01.194Z,1036
2016-08-23T04:30:25.330Z,1044
2016-08-23T04:30:49.498Z,1048
2016-08-23T04:31:13.620Z,1052
2016-08-23T04:31:37.763Z,1056
2016-08-23T04:32:01.905Z,1060
2016-08-23T04:32:26.025Z,1072
2016-08-23T04:32:50.150Z,1076
2016-08-23T04:33:14.377Z,1088
2016-08-23T04:33:38.514Z,1100
2016-08-23T04:34:02.680Z,1120
2016-08-23T04:34:26.798Z,1136
2016-08-23T04:34:50.964Z,1164
2016-08-23T04:35:15.086Z,1184
2016-08-23T04:35:39.198Z,1204
2016-08-23T04:36:03.355Z,1228
2016-08-23T04:36:27.486Z,1248
2016-08-23T04:36:51.610Z,1272
2016-08-23T04:37:15.751Z,1296
2016-08-23T04:37:39.919Z,1324
2016-08-23T04:38:04.041Z,1348
2016-08-23T04:38:28.170Z,1364
2016-08-23T04:38:52.320Z,1384
2016-08-23T04:39:16.444Z,1396
2016-08-23T04:39:40.569Z,1420
2016-08-23T04:40:04.713Z,1444
2016-08-23T04:40:28.834Z,1468
2016-08-23T04:40:52.991Z,1492
2016-08-23T04:41:17.113Z,1516
2016-08-23T04:41:41.239Z,1544
2016-08-23T04:42:05.369Z,1576
2016-08-23T04:42:29.508Z,1608
2016-08-23T04:42:53.657Z,1636
2016-08-23T04:43:17.778Z,1664
2016-08-23T04:43:41.940Z,1692
2016-08-23T04:44:06.060Z,1724
2016-08-23T04:44:30.181Z,1756
2016-08-23T04:44:54.310Z,1776
2016-08-23T04:45:18.441Z,1796
2016-08-23T04:45:42.578Z,1820
2016-08-23T04:46:06.715Z,1836
2016-08-23T04:46:30.856Z,1848
2016-08-23T04:46:54.986Z,1864
2016-08-23T04:47:19.125Z,1872
2016-08-23T04:47:43.262Z,1864
2016-08-23T04:48:07.394Z,1836
2016-08-23T04:48:31.531Z,1808
2016-08-23T04:48:55.682Z,1776
2016-08-23T04:49:19.799Z,1740
2016-08-23T04:49:43.924Z,1704
2016-08-23T04:50:08.083Z,1668
2016-08-23T04:50:32.217Z,1636
2016-08-23T04:50:56.352Z,1608
2016-08-23T04:51:20.487Z,1580
2016-08-23T04:51:44.611Z,1564
2016-08-23T04:52:08.721Z,1556
2016-08-23T04:52:32.838Z,1548
2016-08-23T04:52:56.986Z,1536
2016-08-23T04:53:21.119Z,1516
2016-08-23T04:53:45.253Z,1508
2016-08-23T04:54:09.398Z,1496
2016-08-23T04:54:33.531Z,1484
2016-08-23T04:54:57.655Z,1480
2016-08-23T04:55:21.819Z,1480
2016-08-23T04:55:45.951Z,1480
2016-08-23T04:56:10.088Z,1492
2016-08-23T04:56:34.201Z,1512
2016-08-23T04:56:58.343Z,1532
2016-08-23T04:57:22.486Z,1564
2016-08-23T04:57:46.608Z,1616
2016-08-23T04:58:10.748Z,1692
2016-08-23T04:58:34.883Z,1792
2016-08-23T04:58:59.009Z,1908
2016-08-23T04:59:23.129Z,2044
2016-08-23T04:59:47.251Z,2204
2016-08-23T05:00:11.410Z,2388
2016-08-23T05:00:35.534Z,2576
2016-08-23T05:00:59.668Z,2760
2016-08-23T05:01:23.855Z,2956
2016-08-23T05:01:47.974Z,3140
2016-08-23T05:02:12.090Z,3320
2016-08-23T05:02:36.208Z,3448
2016-08-23T05:03:00.390Z,3532
2016-08-23T05:03:24.560Z,3616
2016-08-23T05:03:48.686Z,3704
2016-08-23T05:04:12.810Z,3792
2016-08-23T05:04:36.954Z,3840
2016-08-23T05:05:01.083Z,3856
2016-08-23T05:05:25.193Z,3864
2016-08-23T05:05:49.365Z,3852
2016-08-23T05:06:13.508Z,3832
2016-08-23T05:06:37.646Z,3784
2016-08-23T05:07:01.796Z,3716
2016-08-23T05:07:25.940Z,3636
2016-08-23T05:07:50.058Z,3556
2016-08-23T05:08:14.191Z,3492
2016-08-23T05:08:38.332Z,3448
2016-08-23T05:09:02.459Z,3408
2016-08-23T05:09:26.570Z,3376
2016-08-23T05:09:50.712Z,3348
2016-08-23T05:10:14.845Z,3332
2016-08-23T05:10:39.011Z,3332
2016-08-23T05:11:03.128Z,3336
2016-08-23T05:11:27.251Z,3356
2016-08-23T05:11:51.367Z,3396
2016-08-23T05:12:15.564Z,3440
2016-08-23T05:12:39.697Z,3484
2016-08-23T05:13:03.817Z,3532
2016-08-23T05:13:27.947Z,3584
2016-08-23T05:13:52.109Z,3632
2016-08-23T05:14:16.292Z,3688
2016-08-23T05:14:40.478Z,3740
2016-08-23T05:15:04.639Z,3800
2016-08-23T05:15:28.786Z,3872
2016-08-23T05:15:52.920Z,3928
2016-08-23T05:16:17.074Z,3968
2016-08-23T05:16:41.217Z,3996
2016-08-23T05:17:05.378Z,4008
2016-08-23T05:17:29.496Z,3992
2016-08-23T05:17:53.645Z,3964
2016-08-23T05:18:17.758Z,3912
2016-08-23T05:18:41.961Z,3868
2016-08-23T05:19:06.112Z,3824
2016-08-23T05:19:30.245Z,3784
2016-08-23T05:19:54.370Z,3740
2016-08-23T05:20:18.511Z,3720
2016-08-23T05:20:42.659Z,3708
2016-08-23T05:21:06.785Z,3716
2016-08-23T05:21:30.957Z,3760
2016-08-23T05:21:55.080Z,3832
2016-08-23T05:22:19.337Z,3916
2016-08-23T05:22:43.456Z,3992
2016-08-23T05:23:07.590Z,4056
2016-08-23T05:23:31.736Z,4104
2016-08-23T05:23:55.895Z,4176
2016-08-23T05:24:20.023Z,4244
2016-08-23T05:24:44.141Z,4292
2016-08-23T05:25:08.274Z,4356
2016-08-23T05:25:32.391Z,4392
2016-08-23T05:25:56.552Z,4440
2016-08-23T05:26:20.669Z,4476
2016-08-23T05:26:44.774Z,4504
2016-08-23T05:27:08.890Z,4520
2016-08-23T05:27:33.044Z,4556
2016-08-23T05:27:57.185Z,4564
2016-08-23T05:28:21.312Z,4588
2016-08-23T05:28:45.463Z,4600
2016-08-23T05:29:09.593Z,4596
2016-08-23T05:29:33.731Z,4604
2016-08-23T05:29:57.851Z,4560
2016-08-23T05:30:21.998Z,4476
2016-08-23T05:30:46.140Z,4432
2016-08-23T05:31:10.257Z,4312
2016-08-23T05:31:34.364Z,4196
2016-08-23T05:31:58.515Z,4052
2016-08-23T05:32:22.674Z,3924
2016-08-23T05:32:46.787Z,3768
2016-08-23T05:33:10.911Z,3596
2016-08-23T05:33:35.047Z,3468
2016-08-23T05:33:59.164Z,3332
2016-08-23T05:34:23.313Z,3204
2016-08-23T05:34:47.439Z,3112
2016-08-23T05:35:11.578Z,3036
2016-08-23T05:35:35.834Z,3000
2016-08-23T05:35:59.937Z,2960
2016-08-23T05:36:24.061Z,2932
2016-08-23T05:36:48.208Z,2924
2016-08-23T05:37:12.347Z,2936
2016-08-23T05:37:36.539Z,2964
2016-08-23T05:38:00.669Z,3008
2016-08-23T05:38:24.803Z,3040
2016-08-23T05:38:48.964Z,3068
2016-08-23T05:39:13.106Z,3116
2016-08-23T05:39:37.253Z,3168
2016-08-23T05:40:01.385Z,3216
2016-08-23T05:40:25.523Z,3272
2016-08-23T05:40:49.676Z,3340
2016-08-23T05:41:13.819Z,3408
2016-08-23T05:41:37.954Z,3492
2016-08-23T05:42:02.072Z,3580
2016-08-23T05:42:26.220Z,3644
2016-08-23T05:42:50.348Z,3692
2016-08-23T05:43:14.515Z,3696
2016-08-23T05:43:38.646Z,3656
2016-08-23T05:44:02.794Z,3576
2016-08-23T05:44:26.942Z,3464
2016-08-23T05:44:51.073Z,3352
2016-08-23T05:45:15.193Z,3232
2016-08-23T05:45:39.325Z,3128
2016-08-23T05:46:03.466Z,3052